HE30 weather

Kom Awshim Airport
Faiyum Governorate, Egypt

Public forecast

Using degrees Celsius for public forecast. Weather courtesy of forecast.io.

Closest aviation weather report (METAR) to Kom Awshim Airport

Closest report is Cairo International Airport, 43.2 nm (80.1 km) NE. Retrieved 2019/10/21 03:00 UTC (28 minutes ago):

HECA 210300Z 04004KT CAVOK 24/10 Q1014 NOSIG

Closest aviation forecast (TAF) to Kom Awshim Airport

Closest forecast is Cairo International Airport, 43.2 nm (80.1 km) NE. Retrieved 2019-10-21 00:40 UTC (3 hours ago):

TAF HECA 202300Z 2100/2206 12006KT CAVOK TEMPO 2101/2106 4000 HZ NSC BECMG 2106/2108 03010KT 9999 SCT025